Latest Weather Observations for Leonora Airport

IDW60801

Issued at 7:32 pm WST Tuesday 26 May 2015 (issued every 30 minutes, with the page automatically refreshed every 10 minutes)

About weather observations | Map of weather stations | Latest weather observations for WA | Other Formats
Station Details ID: 012241 Name: LEONORA AERO Lat: -28.88 Lon: 121.32 Height: 370.0 m
Data from the previous 72 hours. | See also: Recent months for locations in Western Australia
Date/Time
WST
Temp
°C
App
Temp
°C
Dew
Point
Rel
Hum
%
Delta-T
°C
Wind Press
QNH
hPa
Press
MSL
hPa
Rain
since 9 am
mm
Dir
 
Spd
km/h
Gust
km/h
Spd
kts
Gust
kts
26/07:30pm 15.4 15.2 8.9 65 3.4 CALM 0 0 0 0 1022.2 1021.4 0.0
26/07:00pm 16.7 15.3 9.4 62 3.9 NNE 7 11 4 6 1022.1 1021.3 0.0
26/06:30pm 17.5 15.8 9.9 61 4.1 NNE 9 11 5 6 1022.0 1021.2 0.0
26/06:00pm 17.5 17.2 8.6 56 4.7 CALM 0 0 0 0 1021.8 1021.0 0.0
26/05:30pm 18.9 18.6 8.8 52 5.4 CALM 0 0 0 0 1021.4 1020.6 0.0
26/05:00pm 19.9 19.7 9.2 50 5.7 CALM 0 0 0 0 1021.3 1020.5 0.0
26/04:30pm 20.8 20.7 9.4 48 6.2 CALM 0 0 0 0 1021.3 1020.5 0.0
26/04:00pm 21.3 20.9 9.9 48 6.2 N 2 7 1 4 1021.2 1020.4 0.0
26/03:30pm 21.2 21.1 10.7 51 5.8 NW 2 7 1 4 1021.2 1020.4 0.0
26/03:00pm 20.6 19.8 11.0 54 5.3 N 6 9 3 5 1021.2 1020.4 0.0
26/02:30pm 20.6 19.7 11.2 55 5.3 N 7 11 4 6 1021.4 1020.6 0.0
26/02:00pm 19.5 18.6 11.5 60 4.5 N 7 11 4 6 1021.5 1020.7 0.0
26/01:30pm 19.3 18.5 11.8 62 4.2 N 7 13 4 7 1021.6 1020.8 0.0
26/01:00pm 19.0 17.7 12.5 66 3.7 N 11 17 6 9 1021.9 1021.1 0.0
26/12:30pm 18.3 17.4 12.5 69 3.3 NNW 9 13 5 7 1022.4 1021.7 0.0
26/12:00pm 17.3 16.7 12.2 72 2.9 NNW 7 15 4 8 1022.7 1022.0 0.0
26/11:30am 16.1 15.7 12.3 78 2.1 NW 6 9 3 5 1023.2 1022.5 0.0
26/11:00am 15.1 14.1 12.2 83 1.6 WNW 9 15 5 8 1023.7 1023.0 0.0
26/10:30am 14.2 13.5 11.9 86 1.3 NNW 7 13 4 7 1024.1 1023.3 0.0
26/10:00am 13.5 12.6 11.4 87 1.1 NW 7 11 4 6 1024.1 1023.3 0.0
26/09:30am 12.5 12.5 11.2 92 0.7 NNW 2 7 1 4 1024.1 1023.3 0.0
26/09:23am 12.2 12.5 10.9 92 0.7 CALM 0 7 0 4 1024.0 1023.2 0.0
26/09:00am 12.0 12.0 11.1 94 0.5 WSW 2 7 1 4 1024.0 1023.2 0.0
26/08:44am 11.7 12.0 10.9 95 0.4 CALM 0 0 0 0 1023.8 1023.1 0.0
26/08:30am 11.5 11.8 10.9 96 0.3 CALM 0 0 0 0 1023.8 1023.1 0.0
26/08:21am 11.4 11.7 10.9 97 0.3 CALM 0 0 0 0 1023.8 1023.1 0.0
26/08:00am 11.1 11.3 10.6 97 0.3 CALM 0 0 0 0 1023.7 1023.0 0.0
26/07:30am 10.4 10.4 9.9 97 0.3 CALM 0 0 0 0 1023.6 1022.9 0.0
26/07:00am 10.4 10.4 9.8 96 0.3 CALM 0 0 0 0 1023.1 1022.4 0.0
26/06:35am 9.6 9.4 9.0 96 0.3 CALM 0 0 0 0 1022.9 1022.2 0.0
26/06:30am 9.5 9.3 8.9 96 0.3 CALM 0 0 0 0 1022.9 1022.2 0.0
26/06:00am 8.8 8.3 7.9 94 0.4 CALM 0 0 0 0 1022.5 1021.8 0.0
26/05:37am 8.3 7.6 7.1 92 0.6 CALM 0 0 0 0 1022.3 1021.5 0.0
26/05:30am 8.2 7.5 6.8 91 0.7 CALM 0 0 0 0 1022.2 1021.4 0.0
26/05:14am 8.1 7.3 6.6 90 0.7 CALM 0 0 0 0 1022.2 1021.4 0.0
26/05:00am 8.3 7.6 6.9 91 0.7 CALM 0 0 0 0 1022.1 1021.3 0.0
26/04:30am 9.1 8.6 7.9 92 0.6 CALM 0 0 0 0 1021.9 1021.1 0.0
26/04:00am 9.8 9.5 8.7 93 0.5 CALM 0 0 0 0 1021.7 1020.9 0.0
26/03:30am 9.4 9.0 8.2 92 0.6 CALM 0 0 0 0 1021.8 1021.0 0.0
26/03:00am 10.0 9.8 8.9 93 0.6 CALM 0 0 0 0 1021.7 1020.9 0.0
26/02:30am 10.4 10.3 9.3 93 0.6 CALM 0 0 0 0 1021.7 1020.9 0.0
26/02:00am 10.3 8.9 8.9 91 0.7 SE 6 7 3 4 1021.8 1021.0 0.0
26/01:30am 11.1 10.7 9.7 91 0.7 NNE 2 7 1 4 1021.8 1021.0 0.0
26/01:00am 11.4 11.4 9.7 89 0.9 CALM 0 0 0 0 1022.0 1021.2 0.0
26/12:30am 12.4 11.0 11.0 91 0.7 NNE 9 11 5 6 1022.1 1021.3 0.0
26/12:00am 12.4 11.4 11.0 91 0.7 N 7 13 4 7 1022.3 1021.5 0.0
 
Date/Time
WST
Temp
°C
App
Temp
°C
Dew
Point
Rel
Hum
%
Delta-T
°C
Wind Press
QNH
hPa
Press
MSL
hPa
Rain
since 9 am
mm
Dir
 
Spd
km/h
Gust
km/h
Spd
kts
Gust
kts
25/11:30pm 12.1 11.2 10.5 90 0.8 NNE 6 9 3 5 1022.5 1021.8 0.0
25/11:00pm 12.7 11.7 10.9 89 1.0 NE 7 11 4 6 1022.5 1021.8 0.0
25/10:30pm 12.9 11.5 11.0 88 1.0 ENE 9 11 5 6 1022.5 1021.8 0.0
25/10:00pm 13.1 12.1 11.0 87 1.1 ENE 7 9 4 5 1022.5 1021.8 0.0
25/09:30pm 12.2 12.2 9.8 85 1.2 CALM 0 0 0 0 1022.6 1021.9 0.0
25/09:00pm 13.2 13.4 10.6 84 1.4 CALM 0 0 0 0 1022.5 1021.8 0.0
25/08:30pm 14.4 13.7 11.4 82 1.6 NNE 6 7 3 4 1022.6 1021.9 0.0
25/08:00pm 14.8 14.0 11.6 81 1.7 N 7 11 4 6 1022.3 1021.5 0.0
25/07:30pm 15.2 14.0 11.6 79 2.0 NNE 9 15 5 8 1022.3 1021.5 0.0
25/07:00pm 15.6 12.9 11.6 77 2.2 NNE 17 22 9 12 1021.9 1021.1 0.0
25/06:30pm 16.1 13.4 11.7 75 2.4 NNE 17 22 9 12 1021.5 1020.7 0.0
25/06:00pm 16.8 13.7 11.7 72 2.8 NNE 19 28 10 15 1021.4 1020.6 0.0
25/05:30pm 18.2 15.9 11.7 66 3.6 NNE 15 20 8 11 1020.9 1020.2 0.0
25/05:00pm 19.1 16.4 11.7 62 4.1 NE 17 26 9 14 1020.7 1020.0 0.0
25/04:30pm 20.1 17.8 10.5 54 5.3 NNE 13 19 7 10 1020.4 1019.7 0.0
25/04:00pm 21.0 18.9 9.9 49 6.1 NE 11 13 6 7 1020.2 1019.5 0.0
25/03:30pm 21.1 19.1 10.0 49 6.1 N 11 17 6 9 1020.1 1019.4 0.0
25/03:00pm 20.6 19.1 9.2 48 6.1 NNE 7 11 4 6 1020.1 1019.4 0.0
25/02:30pm 20.7 18.9 9.6 49 6.0 NNE 9 13 5 7 1020.1 1019.4 0.0
25/02:00pm 20.5 18.5 10.3 52 5.6 NE 11 17 6 9 1020.2 1019.5 0.0
25/01:30pm 21.4 19.1 10.3 49 6.1 N 13 19 7 10 1020.2 1019.5 0.0
25/01:00pm 21.0 19.1 10.5 51 5.8 ENE 11 20 6 11 1020.4 1019.7 0.0
25/12:30pm 20.2 17.9 10.6 54 5.3 ENE 13 19 7 10 1020.9 1020.2 0.0
25/12:00pm 20.3 18.8 10.7 54 5.3 N 9 17 5 9 1021.3 1020.5 0.0
25/11:30am 19.8 19.8 11.0 57 4.9 E 2 11 1 6 1021.9 1021.1 0.0
25/11:00am 19.7 18.4 11.2 58 4.7 NE 9 13 5 7 1022.3 1021.5 0.0
25/10:30am 18.1 17.3 11.2 64 3.8 NNW 6 13 3 7 1022.7 1022.0 0.0
25/10:00am 17.7 16.8 11.3 66 3.5 NW 7 11 4 6 1023.0 1022.3 0.0
25/09:30am 17.2 16.5 11.5 69 3.2 NW 6 9 3 5 1023.3 1022.6 0.0
25/09:00am 16.8 17.0 11.9 73 2.7 NE 2 7 1 4 1023.2 1022.5 0.0
25/08:30am 15.5 15.5 11.3 76 2.3 NE 2 7 1 4 1022.9 1022.2 0.0
25/08:00am 14.6 14.7 11.4 81 1.7 NE 2 9 1 5 1022.6 1021.9 0.0
25/07:30am 13.1 12.7 11.2 88 1.0 NNE 4 7 2 4 1022.3 1021.5 0.0
25/07:00am 11.4 11.5 10.3 93 0.6 CALM 0 0 0 0 1022.1 1021.3 0.0
25/06:30am 11.4 11.6 10.5 94 0.5 CALM 0 0 0 0 1021.8 1021.0 0.0
25/06:00am 11.6 10.5 10.8 95 0.4 SE 7 9 4 5 1021.5 1020.7 0.0
25/05:30am 10.7 9.5 9.5 92 0.6 ENE 6 7 3 4 1021.3 1020.5 0.0
25/05:00am 11.2 10.1 10.1 93 0.6 ENE 6 7 3 4 1020.9 1020.2 0.0
25/04:30am 11.2 11.2 9.9 92 0.7 CALM 0 0 0 0 1020.8 1020.1 0.0
25/04:00am 11.5 11.6 10.1 91 0.7 CALM 0 0 0 0 1020.7 1020.0 0.0
25/03:30am 11.8 10.8 10.4 91 0.7 ESE 6 9 3 5 1020.7 1020.0 0.0
25/03:00am 12.0 11.0 10.4 90 0.8 SE 6 9 3 5 1020.8 1020.1 0.0
25/02:30am 12.8 11.7 10.7 87 1.1 NNE 7 9 4 5 1020.9 1020.2 0.0
25/02:00am 13.3 13.4 11.4 88 1.0 E 2 9 1 5 1021.2 1020.4 0.0
25/01:30am 12.8 12.9 10.3 85 1.3 CALM 0 0 0 0 1021.0 1020.3 0.0
25/01:00am 13.7 14.1 11.2 85 1.3 CALM 0 0 0 0 1021.2 1020.4 0.0
25/12:30am 13.3 13.7 11.2 87 1.1 CALM 0 9 0 5 1021.2 1020.4 0.0
25/12:00am 13.3 13.6 10.8 85 1.3 CALM 0 6 0 3 1021.0 1020.3 0.0
 
Date/Time
WST
Temp
°C
App
Temp
°C
Dew
Point
Rel
Hum
%
Delta-T
°C
Wind Press
QNH
hPa
Press
MSL
hPa
Rain
since 9 am
mm
Dir
 
Spd
km/h
Gust
km/h
Spd
kts
Gust
kts
24/11:30pm 14.4 13.6 11.7 84 1.5 NNE 7 11 4 6 1021.0 1020.3 0.0
24/11:00pm 14.7 13.2 11.8 83 1.6 N 11 15 6 8 1020.9 1020.2 0.0
24/10:30pm 15.4 13.6 12.2 81 1.8 NNE 13 17 7 9 1021.0 1020.3 0.0
24/10:00pm 15.8 13.7 12.4 80 1.9 N 15 19 8 10 1021.2 1020.4 0.0
24/09:30pm 15.8 14.4 12.2 79 2.0 NNE 11 15 6 8 1021.2 1020.4 0.0
24/09:00pm 16.0 15.3 12.0 77 2.2 NE 7 9 4 5 1021.2 1020.4 0.0
24/08:30pm 15.8 15.1 11.4 75 2.4 NE 6 7 3 4 1020.9 1020.2 0.0
24/08:00pm 16.6 16.0 11.7 73 2.7 NE 6 9 3 5 1020.7 1020.0 0.0
24/07:30pm 17.1 16.5 11.8 71 2.9 NNE 6 9 3 5 1020.6 1019.9 0.0
24/07:00pm 18.0 17.4 12.2 69 3.3 ENE 7 11 4 6 1020.2 1019.5 0.0
24/06:30pm 18.3 17.5 11.8 66 3.6 NNE 7 9 4 5 1020.2 1019.5 0.0
24/06:00pm 19.1 17.6 11.9 63 4.0 NNE 11 15 6 8 1019.8 1019.0 0.0
24/05:30pm 19.6 17.0 12.1 62 4.2 NNE 17 22 9 12 1019.5 1018.7 0.0
24/05:00pm 20.9 18.2 10.4 51 5.8 ENE 15 20 8 11 1019.0 1018.2 0.0
24/04:30pm 21.3 18.9 10.2 49 6.1 ESE 13 19 7 10 1019.0 1018.2 0.0
24/04:00pm 22.1 19.2 9.6 45 6.8 ESE 15 22 8 12 1018.8 1018.0 0.0
24/03:30pm 21.8 18.9 9.7 46 6.6 ENE 15 24 8 13 1018.7 1017.9 0.0
24/03:00pm 21.5 19.1 10.0 48 6.3 ENE 13 22 7 12 1018.6 1017.8 0.0
24/02:30pm 22.1 19.6 10.9 49 6.3 ESE 15 22 8 12 1018.5 1017.7 0.0
24/02:00pm 21.8 19.8 11.5 52 5.8 ESE 13 20 7 11 1018.5 1017.7 0.0
24/01:30pm 21.8 19.9 11.8 53 5.7 ESE 13 22 7 12 1018.6 1017.8 0.0
24/01:00pm 20.5 18.9 11.7 57 5.0 SE 11 20 6 11 1019.0 1018.2 0.0
24/12:30pm 20.3 18.2 12.5 61 4.5 SE 15 22 8 12 1019.4 1018.6 0.0
24/12:00pm 20.2 18.6 12.7 62 4.3 ESE 13 22 7 12 1019.8 1019.0 0.0
24/11:30am 19.8 18.1 12.6 63 4.1 ESE 13 19 7 10 1020.1 1019.4 0.0
24/11:00am 18.9 17.6 12.6 67 3.6 ESE 11 17 6 9 1020.4 1019.7 0.0
24/10:30am 18.4 17.5 12.6 69 3.3 SE 9 13 5 7 1020.7 1020.0 0.0
24/10:00am 17.3 17.1 13.0 76 2.4 ESE 6 11 3 6 1020.9 1020.2 0.0
24/09:30am 15.9 15.1 13.0 83 1.6 E 9 13 5 7 1021.0 1020.3 0.0
24/09:00am 14.8 14.1 13.3 91 0.8 E 9 13 5 7 1020.9 1020.2 0.0
24/08:58am 14.7 14.1 13.4 92 0.7 ENE 9 13 5 7 1020.9 1020.2 0.0
24/08:32am 13.2 12.3 12.7 97 0.3 E 9 13 5 7 1020.8 1020.1 0.0
24/08:30am 13.2 12.3 12.7 97 0.3 E 9 13 5 7 1020.8 1020.1 0.0
24/08:00am 12.6 11.9 12.1 97 0.3 SE 7 11 4 6 1020.7 1020.0 0.0
24/07:30am 12.1 11.5 11.6 97 0.3 ESE 6 9 3 5 1020.3 1019.6 0.0
24/07:00am 12.2 11.6 11.6 96 0.3 E 6 7 3 4 1019.9 1019.1 0.0
24/06:31am 12.3 12.0 11.5 95 0.4 E 4 9 2 5 1019.7 1018.9 0.0
24/06:30am 12.4 12.1 11.6 95 0.4 E 4 9 2 5 1019.7 1018.9 0.0
24/06:27am 12.3 12.0 11.5 95 0.4 E 4 7 2 4 1019.6 1018.8 0.0
24/06:07am 12.7 12.2 11.9 95 0.4 ESE 6 7 3 4 1019.5 1018.7 0.0
24/06:02am 12.8 12.7 12.0 95 0.4 ENE 4 7 2 4 1019.4 1018.6 0.0
24/06:00am 12.8 12.7 12.0 95 0.4 NE 4 7 2 4 1019.4 1018.6 0.0
24/05:39am 13.1 13.8 12.3 95 0.4 CALM 0 0 0 0 1019.3 1018.5 0.0
24/05:34am 13.1 13.8 12.3 95 0.4 CALM 0 4 0 2 1019.3 1018.5 0.0
24/05:30am 13.2 13.6 12.4 95 0.4 SE 2 7 1 4 1019.3 1018.5 0.0
24/05:00am 13.4 13.0 12.5 94 0.5 E 6 9 3 5 1019.0 1018.2 0.0
24/04:30am 13.4 12.8 12.3 93 0.6 SE 7 9 4 5 1018.9 1018.1 0.0
24/04:03am 13.6 13.1 12.7 94 0.5 NE 7 9 4 5 1018.8 1018.0 0.0
24/04:00am 13.6 13.3 12.7 94 0.5 NNE 6 9 3 5 1018.8 1018.0 0.0
24/03:36am 13.6 13.1 12.7 94 0.5 NE 7 9 4 5 1018.9 1018.1 0.0
24/03:30am 13.5 13.0 12.6 94 0.5 NE 7 11 4 6 1018.9 1018.1 0.0
24/03:00am 13.6 13.1 12.8 95 0.4 E 7 7 4 4 1018.8 1018.0 0.0
24/02:30am 13.8 14.4 13.0 95 0.4 ESE 2 7 1 4 1018.8 1018.0 0.0
24/02:00am 13.6 14.1 12.8 95 0.4 E 2 9 1 5 1018.9 1018.1 0.0
24/01:30am 13.7 13.3 13.1 96 0.3 E 7 9 4 5 1018.7 1017.9 0.0
24/01:00am 12.9 12.2 12.0 94 0.5 SE 7 9 4 5 1018.7 1017.9 0.0
24/12:30am 12.8 12.1 11.5 92 0.7 NE 6 13 3 7 1018.5 1017.7 0.0
24/12:00am 12.7 13.1 11.1 90 0.9 CALM 0 7 0 4 1018.5 1017.7 0.0
 
Date/Time
WST
Temp
°C
App
Temp
°C
Dew
Point
Rel
Hum
%
Delta-T
°C
Wind Press
QNH
hPa
Press
MSL
hPa
Rain
since 9 am
mm
Dir
 
Spd
km/h
Gust
km/h
Spd
kts
Gust
kts
23/11:30pm 13.3 13.1 11.7 90 0.9 SSW 4 7 2 4 1018.6 1017.8 0.0
23/11:00pm 14.1 14.8 12.1 88 1.1 CALM 0 0 0 0 1018.4 1017.6 0.0
23/10:30pm 14.8 15.1 12.3 85 1.4 ENE 2 6 1 3 1018.5 1017.7 0.0
23/10:00pm 15.5 14.8 13.2 86 1.3 NNE 9 13 5 7 1018.3 1017.5 0.0
23/09:30pm 15.5 14.4 13.2 86 1.3 NE 11 19 6 10 1018.3 1017.5 0.0
23/09:00pm 16.0 14.6 13.5 85 1.4 NE 13 19 7 10 1018.1 1017.4 0.0
23/08:30pm 16.2 14.8 13.5 84 1.5 NE 13 20 7 11 1018.1 1017.4 0.0
23/08:00pm 16.3 14.9 13.4 83 1.7 NE 13 17 7 9 1018.0 1017.3 0.0

Other Formats:

Comma delimited format used in spreadsheet applications
http://www.bom.gov.au/fwo/IDW60801/IDW60801.94450.axf

JavaScript Object Notation format (JSON) in row-major order
http://www.bom.gov.au/fwo/IDW60801/IDW60801.94450.json